Time;durP1;ratioP1;P1;durP2;ratioP2;P2;SDS_P1;SDS_P2;PMS_P1;PMS_P2;Temp;Humidity;BMP_temperature;BMP_pressure;BME280_temperature;BME280_humidity;BME280_pressure;Samples;Min_cycle;Max_cycle;Signal;HPM_P1;HPM_P2
2021/08/29 00:01:36;;;;;;;5.40;3.45;;;13.80;99.90;;;;;;4988581;28;20038;-78
2021/08/29 00:04:03;;;;;;;4.80;3.60;;;13.70;99.90;;;;;;4999581;28;20070;-78
2021/08/29 00:06:30;;;;;;;5.13;3.67;;;13.70;99.90;;;;;;4989134;28;20447;-78
2021/08/29 00:08:57;;;;;;;4.32;3.50;;;13.60;99.90;;;;;;4988360;28;20065;-76
2021/08/29 00:11:24;;;;;;;5.20;3.35;;;13.60;99.90;;;;;;5016258;28;20195;-76
2021/08/29 00:13:51;;;;;;;5.20;2.83;;;13.60;99.90;;;;;;5006437;28;20065;-76
2021/08/29 00:16:18;;;;;;;4.10;2.97;;;13.70;99.90;;;;;;5005118;28;20064;-77
2021/08/29 00:18:45;;;;;;;5.93;3.08;;;13.60;99.90;;;;;;4987978;28;20042;-76
2021/08/29 00:21:12;;;;;;;6.15;3.45;;;13.60;99.90;;;;;;5004286;28;20046;-77
2021/08/29 00:23:39;;;;;;;5.65;3.53;;;13.50;99.90;;;;;;4989924;28;20054;-76
2021/08/29 00:26:05;;;;;;;5.10;4.15;;;13.60;99.90;;;;;;4979924;28;20050;-76
2021/08/29 00:28:32;;;;;;;4.82;3.45;;;13.60;99.90;;;;;;5020806;28;20085;-76
2021/08/29 00:30:59;;;;;;;5.13;4.63;;;13.60;99.90;;;;;;5021724;28;20084;-76
2021/08/29 00:33:26;;;;;;;5.32;3.63;;;13.70;99.90;;;;;;5002558;28;20502;-76
2021/08/29 00:35:53;;;;;;;3.75;2.97;;;13.70;99.90;;;;;;4986258;28;20045;-77
2021/08/29 00:38:20;;;;;;;5.78;3.22;;;13.70;99.90;;;;;;4987599;28;20054;-76
2021/08/29 00:40:50;;;;;;;5.00;3.38;;;13.60;99.90;;;;;;5036224;28;20068;-76
2021/08/29 00:43:18;;;;;;;4.93;3.28;;;13.60;99.90;;;;;;4971619;28;20061;-77
2021/08/29 00:45:46;;;;;;;6.15;3.92;;;13.60;99.90;;;;;;4970914;28;20727;-79
2021/08/29 00:48:13;;;;;;;6.45;4.10;;;13.60;99.90;;;;;;5003957;28;20520;-77
2021/08/29 00:50:43;;;;;;;8.40;5.03;;;13.60;99.90;;;;;;5003905;28;20045;-76
2021/08/29 00:53:12;;;;;;;6.22;5.15;;;13.60;99.90;;;;;;4986699;28;20252;-77
2021/08/29 00:55:39;;;;;;;9.48;5.70;;;13.70;99.90;;;;;;5008099;28;20056;-77
2021/08/29 00:58:06;;;;;;;9.55;5.68;;;13.70;99.90;;;;;;5013593;28;20046;-77
2021/08/29 01:00:42;;;;;;;7.28;4.72;;;13.60;99.90;;;;;;5004044;28;20053;-77
2021/08/29 01:03:19;;;;;;;7.47;5.35;;;13.50;99.90;;;;;;4987246;28;20144;-77
2021/08/29 01:06:05;;;;;;;6.32;4.97;;;13.60;99.90;;;;;;4988791;28;20061;-76
2021/08/29 01:08:57;;;;;;;4.07;3.22;;;13.60;99.90;;;;;;4989819;28;20064;-77
2021/08/29 01:11:26;;;;;;;6.07;4.70;;;13.60;99.90;;;;;;5004134;28;20152;-77
2021/08/29 01:13:59;;;;;;;5.50;3.60;;;13.50;99.90;;;;;;4988694;28;20232;-77
2021/08/29 01:16:33;;;;;;;4.07;3.40;;;13.50;99.90;;;;;;4987372;28;20050;-77
2021/08/29 01:19:15;;;;;;;4.63;3.53;;;13.50;99.90;;;;;;5029760;28;20068;-77
2021/08/29 01:21:47;;;;;;;4.70;4.18;;;13.60;99.90;;;;;;4989450;28;20130;-77
2021/08/29 01:24:18;;;;;;;4.60;3.67;;;13.60;99.90;;;;;;4993831;28;20052;-77
2021/08/29 01:26:59;;;;;;;7.10;4.63;;;13.60;99.90;;;;;;5002145;28;20133;-76
2021/08/29 01:29:29;;;;;;;7.43;5.70;;;13.70;99.90;;;;;;4984066;28;20473;-76
2021/08/29 01:32:05;;;;;;;8.77;5.05;;;13.60;99.90;;;;;;5010209;28;20095;-76
2021/08/29 01:34:34;;;;;;;8.02;5.05;;;13.60;99.90;;;;;;5043026;28;20066;-76
2021/08/29 01:37:18;;;;;;;6.18;4.20;;;13.70;99.90;;;;;;5011816;28;20036;-76
2021/08/29 01:39:48;;;;;;;5.45;4.45;;;13.70;99.90;;;;;;5013628;28;20317;-77
2021/08/29 01:42:21;;;;;;;4.32;3.50;;;13.80;99.90;;;;;;5012831;28;20054;-77
2021/08/29 01:44:48;;;;;;;4.85;3.22;;;13.70;99.90;;;;;;5023145;28;20164;-77
2021/08/29 01:47:17;;;;;;;4.20;3.35;;;13.60;99.90;;;;;;5027843;28;20045;-76
2021/08/29 01:49:46;;;;;;;5.28;3.63;;;13.60;99.90;;;;;;5019664;28;20046;-76
2021/08/29 01:52:14;;;;;;;4.82;3.88;;;13.60;99.90;;;;;;4992048;28;20144;-77
2021/08/29 01:54:59;;;;;;;4.55;3.55;;;13.60;99.90;;;;;;5010864;28;20172;-77
2021/08/29 01:57:43;;;;;;;7.38;4.35;;;13.50;99.90;;;;;;4995502;28;20129;-76
2021/08/29 02:00:20;;;;;;;4.57;3.88;;;13.50;99.90;;;;;;4994428;28;20042;-76
2021/08/29 02:02:46;;;;;;;7.00;4.55;;;13.50;99.90;;;;;;4991900;28;20123;-76
2021/08/29 02:05:14;;;;;;;5.00;4.40;;;13.50;99.90;;;;;;5001535;28;20521;-77
2021/08/29 02:07:51;;;;;;;6.40;4.60;;;13.60;99.90;;;;;;4992946;28;20042;-77
2021/08/29 02:10:34;;;;;;;3.63;3.33;;;13.60;99.90;;;;;;4992266;28;20054;-77
2021/08/29 02:13:12;;;;;;;5.05;3.53;;;13.60;99.90;;;;;;5004422;28;20049;-77
2021/08/29 02:15:44;;;;;;;4.32;3.92;;;13.60;99.90;;;;;;5009575;28;20623;-76
2021/08/29 02:18:12;;;;;;;5.70;4.18;;;13.60;99.90;;;;;;5006385;28;20077;-77
2021/08/29 02:20:47;;;;;;;6.18;4.40;;;13.60;99.90;;;;;;5009505;28;20049;-77
2021/08/29 02:23:15;;;;;;;6.45;5.05;;;13.60;99.90;;;;;;5017038;28;20305;-76
2021/08/29 02:25:46;;;;;;;6.43;4.88;;;13.60;99.90;;;;;;5022698;28;20057;-76
2021/08/29 02:28:14;;;;;;;7.13;5.43;;;13.80;99.90;;;;;;5017030;28;20100;-77
2021/08/29 02:30:42;;;;;;;7.43;5.30;;;13.70;99.90;;;;;;5012113;28;20109;-79
2021/08/29 02:33:13;;;;;;;7.13;5.38;;;13.70;99.90;;;;;;5011843;28;20062;-76
2021/08/29 02:35:41;;;;;;;7.28;5.50;;;13.70;99.90;;;;;;5008548;28;20349;-77
2021/08/29 02:38:11;;;;;;;8.00;5.47;;;13.70;99.90;;;;;;5005841;28;20089;-76
2021/08/29 02:40:44;;;;;;;8.45;6.00;;;13.70;99.90;;;;;;5006704;28;20201;-76
2021/08/29 02:43:12;;;;;;;9.98;5.72;;;13.80;99.90;;;;;;5015695;28;20026;-77
2021/08/29 02:45:42;;;;;;;7.43;5.38;;;13.80;99.90;;;;;;5011809;28;20046;-76
2021/08/29 02:48:10;;;;;;;8.25;5.40;;;13.80;99.90;;;;;;5013063;28;20118;-76
2021/08/29 02:50:46;;;;;;;5.63;3.97;;;13.90;99.90;;;;;;5020040;28;20067;-76
2021/08/29 02:53:17;;;;;;;6.13;3.92;;;13.90;99.90;;;;;;4989381;28;20049;-77
2021/08/29 02:55:52;;;;;;;5.70;3.15;;;13.80;99.90;;;;;;5016213;28;20132;-77
2021/08/29 02:58:19;;;;;;;4.43;2.88;;;13.80;99.90;;;;;;4988753;28;20068;-76
2021/08/29 03:01:05;;;;;;;5.80;2.28;;;13.80;99.90;;;;;;5012281;28;20049;-77
2021/08/29 03:03:52;;;;;;;5.03;2.60;;;13.80;99.90;;;;;;5005007;28;20061;-77
2021/08/29 03:06:21;;;;;;;3.97;2.20;;;13.90;99.90;;;;;;4988931;28;20214;-77
2021/08/29 03:08:48;;;;;;;3.50;1.80;;;13.80;99.90;;;;;;4990071;28;20065;-77
2021/08/29 03:11:19;;;;;;;2.15;1.73;;;13.80;99.90;;;;;;5005755;28;20065;-76
2021/08/29 03:13:48;;;;;;;3.95;1.80;;;13.80;99.90;;;;;;4973732;28;20046;-77
2021/08/29 03:16:16;;;;;;;8.75;2.13;;;13.80;99.90;;;;;;4992358;28;20145;-77
2021/08/29 03:18:46;;;;;;;3.97;2.53;;;13.80;99.90;;;;;;4973282;28;20046;-77
2021/08/29 03:21:33;;;;;;;6.28;2.70;;;13.80;99.90;;;;;;5005009;28;20042;-77
2021/08/29 03:24:00;;;;;;;4.45;2.97;;;13.70;99.90;;;;;;4988808;28;20056;-77
2021/08/29 03:26:27;;;;;;;5.05;3.15;;;13.70;99.90;;;;;;5029758;28;20122;-76
2021/08/29 03:29:00;;;;;;;6.00;3.65;;;13.60;99.90;;;;;;4996329;28;20140;-77
2021/08/29 03:31:29;;;;;;;8.55;5.43;;;13.60;99.90;;;;;;4999289;28;20046;-77
2021/08/29 03:33:59;;;;;;;11.77;6.53;;;13.60;99.90;;;;;;4989085;28;20057;-77
2021/08/29 03:36:29;;;;;;;13.23;7.75;;;13.50;99.90;;;;;;5005618;28;20058;-77
2021/08/29 03:38:59;;;;;;;17.17;8.95;;;13.40;99.90;;;;;;4990055;28;20046;-77
2021/08/29 03:41:29;;;;;;;17.75;10.73;;;13.50;99.90;;;;;;5004396;28;20045;-77
2021/08/29 03:43:57;;;;;;;19.15;10.90;;;13.50;99.90;;;;;;4985886;28;20073;-78
2021/08/29 03:46:25;;;;;;;17.58;9.68;;;13.40;99.90;;;;;;5022610;28;20080;-78
2021/08/29 03:48:55;;;;;;;16.58;9.75;;;13.50;99.90;;;;;;4989951;28;20045;-77
2021/08/29 03:51:24;;;;;;;14.45;8.93;;;13.50;99.90;;;;;;5016569;28;20282;-77
2021/08/29 03:53:51;;;;;;;16.75;10.02;;;13.60;99.90;;;;;;4988722;28;20054;-78
2021/08/29 03:56:19;;;;;;;16.63;9.65;;;13.50;99.90;;;;;;4980463;28;20088;-77
2021/08/29 03:58:46;;;;;;;15.15;9.95;;;13.50;99.90;;;;;;5007522;28;20119;-78
2021/08/29 04:01:13;;;;;;;15.10;9.55;;;13.50;99.90;;;;;;5004118;28;20042;-78
2021/08/29 04:03:41;;;;;;;17.17;11.27;;;13.50;99.90;;;;;;5004841;28;20049;-77
2021/08/29 04:06:19;;;;;;;22.75;12.32;;;13.50;99.90;;;;;;5004459;28;20108;-77
2021/08/29 04:08:49;;;;;;;21.20;12.38;;;13.60;99.90;;;;;;4988137;28;20058;-77
2021/08/29 04:11:22;;;;;;;21.52;11.68;;;13.50;99.90;;;;;;4987721;28;20046;-77
2021/08/29 04:13:51;;;;;;;20.45;11.85;;;13.50;99.90;;;;;;5005271;28;20749;-77
2021/08/29 04:16:28;;;;;;;17.42;10.13;;;13.50;99.90;;;;;;5020891;28;20042;-77
2021/08/29 04:19:02;;;;;;;17.00;9.68;;;13.60;99.90;;;;;;4988222;28;20049;-76
2021/08/29 04:21:31;;;;;;;13.00;8.82;;;13.60;99.90;;;;;;5003440;28;20050;-77
2021/08/29 04:23:59;;;;;;;14.75;8.27;;;13.60;99.90;;;;;;4995909;28;20122;-77
2021/08/29 04:26:37;;;;;;;12.10;7.35;;;13.60;99.90;;;;;;5019415;28;20125;-77
2021/08/29 04:29:04;;;;;;;11.93;7.30;;;13.60;99.90;;;;;;5004371;28;20046;-77
2021/08/29 04:31:33;;;;;;;14.55;7.68;;;13.70;99.90;;;;;;4986468;28;20061;-77
2021/08/29 04:34:06;;;;;;;11.93;8.10;;;13.70;99.90;;;;;;5019122;28;20140;-77
2021/08/29 04:36:39;;;;;;;10.63;7.25;;;13.70;99.90;;;;;;4987086;28;20046;-77
2021/08/29 04:39:20;;;;;;;9.60;6.00;;;13.70;99.90;;;;;;4990216;28;20080;-77
2021/08/29 04:41:47;;;;;;;9.98;6.38;;;13.60;99.90;;;;;;4971087;28;20069;-77
2021/08/29 04:44:14;;;;;;;8.43;6.00;;;13.60;99.90;;;;;;4984296;28;20725;-77
2021/08/29 04:46:41;;;;;;;9.68;6.80;;;13.70;99.90;;;;;;4986498;28;20052;-77
2021/08/29 04:49:10;;;;;;;9.55;6.25;;;13.70;99.90;;;;;;5004074;28;20112;-77
2021/08/29 04:51:37;;;;;;;11.25;7.07;;;13.70;99.90;;;;;;5003316;28;20046;-78
2021/08/29 04:54:04;;;;;;;9.73;6.03;;;13.60;99.90;;;;;;4996798;28;20490;-76
2021/08/29 04:56:33;;;;;;;11.02;6.72;;;13.60;99.90;;;;;;4986848;28;20346;-77
2021/08/29 04:59:00;;;;;;;12.18;6.85;;;13.70;99.90;;;;;;5019342;28;20189;-77
2021/08/29 05:01:30;;;;;;;6.72;4.72;;;13.60;99.90;;;;;;5002547;28;20050;-76
2021/08/29 05:03:58;;;;;;;9.10;4.80;;;13.60;99.90;;;;;;5001193;28;20053;-77
2021/08/29 05:06:26;;;;;;;4.35;3.22;;;13.70;99.90;;;;;;5028557;28;20100;-77
2021/08/29 05:08:53;;;;;;;7.07;3.17;;;13.70;99.90;;;;;;4987116;28;20042;-76
2021/08/29 05:11:22;;;;;;;3.38;2.90;;;13.60;99.90;;;;;;5004860;28;20046;-78
2021/08/29 05:13:49;;;;;;;4.00;3.55;;;13.70;99.90;;;;;;4988887;28;20462;-77
2021/08/29 05:16:16;;;;;;;4.25;2.97;;;13.70;99.90;;;;;;5004418;28;20045;-77
2021/08/29 05:18:44;;;;;;;6.03;3.35;;;13.70;99.90;;;;;;4987968;28;20132;-77
2021/08/29 05:21:19;;;;;;;3.95;2.67;;;13.80;99.90;;;;;;4987814;28;20050;-77
2021/08/29 05:24:15;;;;;;;;;;;13.80;99.90;;;;;;5029099;28;20080;-78
2021/08/29 05:26:46;;;;;;;4.25;3.08;;;13.90;99.90;;;;;;4994803;28;20382;-78
2021/08/29 05:29:13;;;;;;;4.03;3.00;;;13.80;99.90;;;;;;4981050;28;20707;-77
2021/08/29 05:31:42;;;;;;;3.72;2.83;;;13.80;99.90;;;;;;5019012;28;20045;-77
2021/08/29 05:34:09;;;;;;;3.50;2.80;;;13.80;99.90;;;;;;4987355;28;20096;-77
2021/08/29 05:36:36;;;;;;;3.92;3.20;;;13.80;99.90;;;;;;4986681;28;20058;-77
2021/08/29 05:39:04;;;;;;;5.53;3.40;;;13.80;99.90;;;;;;5003684;28;20088;-77
2021/08/29 05:41:34;;;;;;;4.10;3.40;;;13.80;99.90;;;;;;4991508;28;20104;-79
2021/08/29 05:44:30;;;;;;;4.25;3.00;;;13.90;99.90;;;;;;5011462;28;20058;-79
2021/08/29 05:46:57;;;;;;;3.63;2.70;;;13.80;99.90;;;;;;5000155;28;20158;-78
2021/08/29 05:49:28;;;;;;;4.63;3.40;;;13.80;99.90;;;;;;4994903;28;20060;-77
2021/08/29 05:51:55;;;;;;;3.35;2.65;;;13.80;99.90;;;;;;5018312;28;20085;-79
2021/08/29 05:54:21;;;;;;;2.92;2.15;;;13.80;99.90;;;;;;5007702;28;20633;-78
2021/08/29 05:56:49;;;;;;;4.88;2.65;;;13.80;99.90;;;;;;4999172;28;20054;-78
2021/08/29 05:59:16;;;;;;;2.20;2.00;;;13.90;99.90;;;;;;5002275;28;20057;-78
2021/08/29 06:01:44;;;;;;;3.97;2.10;;;13.90;99.90;;;;;;5005132;28;20057;-78
2021/08/29 06:04:11;;;;;;;2.63;2.00;;;13.90;99.90;;;;;;4995084;28;20046;-77
2021/08/29 06:06:49;;;;;;;2.60;2.03;;;13.90;99.90;;;;;;5003223;28;20387;-77
2021/08/29 06:09:17;;;;;;;2.05;1.77;;;13.80;99.90;;;;;;5005661;28;20054;-77
2021/08/29 06:11:43;;;;;;;2.50;1.85;;;13.80;99.90;;;;;;5006366;28;20050;-78
2021/08/29 06:14:10;;;;;;;2.85;2.10;;;13.80;99.90;;;;;;4990980;28;20149;-78
2021/08/29 06:16:38;;;;;;;3.28;1.73;;;13.80;99.90;;;;;;5007226;28;20046;-78
2021/08/29 06:19:16;;;;;;;3.13;1.92;;;13.80;99.90;;;;;;5006358;28;20305;-78
2021/08/29 06:21:43;;;;;;;2.38;1.33;;;13.80;99.90;;;;;;4996725;28;20046;-77
2021/08/29 06:24:10;;;;;;;2.22;1.70;;;13.70;99.90;;;;;;5007885;28;20046;-77
2021/08/29 06:26:55;;;;;;;2.25;1.80;;;13.70;99.90;;;;;;5014206;28;20340;-78
2021/08/29 06:29:41;;;;;;;;;;;13.70;99.90;;;;;;4994350;28;20045;-77
2021/08/29 06:32:45;;;;;;;4.07;2.92;;;13.70;99.90;;;;;;5006961;28;19975;-77
2021/08/29 06:35:16;;;;;;;3.80;2.97;;;13.80;99.90;;;;;;4989080;28;20082;-77
2021/08/29 06:37:49;;;;;;;4.07;3.45;;;13.70;99.90;;;;;;4990859;28;20056;-77
2021/08/29 06:40:16;;;;;;;3.90;3.22;;;13.70;99.90;;;;;;4976085;28;20297;-78
2021/08/29 06:42:43;;;;;;;4.82;3.72;;;13.60;99.90;;;;;;5005751;28;20046;-77
2021/08/29 06:45:29;;;;;;;4.20;3.42;;;13.70;99.90;;;;;;5012331;28;20069;-77
2021/08/29 06:48:14;;;;;;;3.58;2.85;;;13.60;99.90;;;;;;5019727;28;20050;-78
2021/08/29 06:51:00;;;;;;;4.63;2.55;;;13.60;99.90;;;;;;5038259;28;20132;-78
2021/08/29 06:53:45;;;;;;;;;;;13.70;99.90;;;;;;5006300;28;20045;-78
2021/08/29 06:56:31;;;;;;;2.60;2.05;;;13.60;99.90;;;;;;5037503;28;19921;-78
2021/08/29 06:59:09;;;;;;;3.22;2.53;;;13.60;99.90;;;;;;4985308;28;20502;-78
2021/08/29 07:01:36;;;;;;;2.80;1.70;;;13.60;99.90;;;;;;4990775;28;20065;-77
2021/08/29 07:04:03;;;;;;;2.53;2.20;;;13.70;99.90;;;;;;5000095;28;20112;-77
2021/08/29 07:06:30;;;;;;;2.75;1.85;;;13.70;99.90;;;;;;4990702;28;20050;-77
2021/08/29 07:09:17;;;;;;;1.40;1.30;;;13.70;99.90;;;;;;5021206;28;20064;-78
2021/08/29 07:11:44;;;;;;;2.60;1.65;;;13.70;99.90;;;;;;4974733;28;20054;-77
2021/08/29 07:14:37;;;;;;;2.17;1.70;;;13.60;99.90;;;;;;4994273;28;20042;-77
2021/08/29 07:17:05;;;;;;;1.40;1.30;;;13.70;99.90;;;;;;5006838;28;20370;-77
2021/08/29 07:19:32;;;;;;;1.90;1.40;;;13.80;99.90;;;;;;4992614;28;20060;-78
2021/08/29 07:22:17;;;;;;;1.50;1.40;;;13.80;99.90;;;;;;5003383;28;20045;-78
2021/08/29 07:25:03;;;;;;;1.15;1.00;;;13.70;99.90;;;;;;5011481;28;20037;-78
2021/08/29 07:27:50;;;;;;;1.55;1.45;;;13.70;99.90;;;;;;4998444;28;20055;-78
2021/08/29 07:30:36;;;;;;;;;;;13.80;99.90;;;;;;5003649;28;20608;-78
2021/08/29 07:33:10;;;;;;;1.77;1.30;;;13.80;99.90;;;;;;4974889;28;19921;-77
2021/08/29 07:35:46;;;;;;;2.10;1.20;;;13.80;99.90;;;;;;4989352;28;20048;-77
2021/08/29 07:38:27;;;;;;;3.13;1.20;;;13.70;99.90;;;;;;4995965;28;20054;-77
2021/08/29 07:40:55;;;;;;;2.35;1.35;;;13.70;99.90;;;;;;4973330;28;20296;-78
2021/08/29 07:43:21;;;;;;;2.05;1.40;;;13.70;99.90;;;;;;5005950;28;20104;-78
2021/08/29 07:45:49;;;;;;;3.22;1.42;;;13.70;99.90;;;;;;5006347;28;20100;-78
2021/08/29 07:48:15;;;;;;;3.03;1.25;;;13.80;99.90;;;;;;5006598;28;20048;-78
2021/08/29 07:50:42;;;;;;;1.88;1.40;;;13.80;99.90;;;;;;5005314;28;20049;-78
2021/08/29 07:53:09;;;;;;;2.13;1.92;;;13.80;99.90;;;;;;5003466;28;20192;-76
2021/08/29 07:55:59;;;;;;;3.47;1.70;;;13.80;99.90;;;;;;5016545;28;20158;-78
2021/08/29 07:58:30;;;;;;;2.35;1.80;;;13.80;99.90;;;;;;5012890;28;20490;-78
2021/08/29 08:01:08;;;;;;;1.50;1.20;;;13.90;99.90;;;;;;4989820;28;20301;-78
2021/08/29 08:03:36;;;;;;;1.75;1.08;;;13.90;99.90;;;;;;5008984;28;20065;-79
2021/08/29 08:06:09;;;;;;;1.80;1.50;;;13.90;99.90;;;;;;4990591;28;20060;-77
2021/08/29 08:08:53;;;;;;;2.10;1.17;;;13.70;99.90;;;;;;4992415;28;20562;-77
2021/08/29 08:11:42;;;;;;;4.97;1.20;;;13.60;99.90;;;;;;4991931;28;20054;-78
2021/08/29 08:14:12;;;;;;;4.25;1.55;;;13.60;99.90;;;;;;4990418;28;20062;-78
2021/08/29 08:16:39;;;;;;;1.40;1.20;;;13.70;99.90;;;;;;5007630;28;20049;-78
2021/08/29 08:19:19;;;;;;;1.80;1.08;;;13.60;99.90;;;;;;4990929;28;20064;-78
2021/08/29 08:21:47;;;;;;;2.38;1.50;;;13.70;99.90;;;;;;4996382;28;20046;-78
2021/08/29 08:24:24;;;;;;;2.92;1.88;;;13.70;99.90;;;;;;4990275;28;20148;-78
2021/08/29 08:27:09;;;;;;;1.65;1.33;;;13.70;99.90;;;;;;5031175;28;20501;-79
2021/08/29 08:29:54;;;;;;;;;;;13.80;99.90;;;;;;5010876;28;20054;-77
2021/08/29 08:32:55;;;;;;;1.40;1.00;;;13.80;99.90;;;;;;5004960;28;20017;-78
2021/08/29 08:35:44;;;;;;;2.10;1.63;;;13.80;99.90;;;;;;4992335;28;20072;-77
2021/08/29 08:38:36;;;;;;;1.35;1.13;;;14.00;99.90;;;;;;5003250;28;20453;-77
2021/08/29 08:41:21;;;;;;;1.85;1.25;;;14.00;99.90;;;;;;4987802;28;20540;-78
2021/08/29 08:44:27;;;;;;;1.55;1.35;;;14.00;99.90;;;;;;5007877;28;20056;-78
2021/08/29 08:47:16;;;;;;;1.30;1.20;;;13.90;99.90;;;;;;4985524;28;20050;-77
2021/08/29 08:50:03;;;;;;;1.95;1.63;;;14.00;99.90;;;;;;5008899;28;20117;-77
2021/08/29 08:52:50;;;;;;;1.00;0.90;;;14.10;99.90;;;;;;5018205;28;20053;-78
2021/08/29 08:55:38;;;;;;;1.73;1.10;;;14.10;99.90;;;;;;5008225;28;20050;-78
2021/08/29 08:58:24;;;;;;;1.77;1.38;;;14.10;99.90;;;;;;5042047;28;20049;-77
2021/08/29 09:01:15;;;;;;;1.17;0.93;;;14.10;99.90;;;;;;4983402;28;20061;-77
2021/08/29 09:04:10;;;;;;;1.52;1.25;;;14.20;99.90;;;;;;4993132;28;20161;-78
2021/08/29 09:06:43;;;;;;;1.98;1.58;;;14.30;99.90;;;;;;5004200;28;20145;-77
2021/08/29 09:09:11;;;;;;;1.73;1.20;;;14.30;99.90;;;;;;5004230;28;20045;-77
2021/08/29 09:11:42;;;;;;;2.00;1.52;;;14.30;99.90;;;;;;5019879;28;20100;-77
2021/08/29 09:14:09;;;;;;;2.95;1.40;;;14.30;99.90;;;;;;4988083;28;20054;-77
2021/08/29 09:16:37;;;;;;;1.88;1.35;;;14.30;99.90;;;;;;5003806;28;20045;-77
2021/08/29 09:19:05;;;;;;;1.75;1.63;;;14.20;99.90;;;;;;4990529;28;20141;-78
2021/08/29 09:21:35;;;;;;;4.30;1.80;;;14.40;99.90;;;;;;4971662;28;20052;-77
2021/08/29 09:24:13;;;;;;;2.75;1.85;;;14.40;99.90;;;;;;4986356;28;20521;-77
2021/08/29 09:27:02;;;;;;;2.53;1.10;;;14.50;99.90;;;;;;4996692;28;20049;-77
2021/08/29 09:29:54;;;;;;;1.65;1.05;;;14.50;99.90;;;;;;4986412;28;20190;-77
2021/08/29 09:32:21;;;;;;;2.38;0.70;;;14.60;99.90;;;;;;5036173;28;20077;-77
2021/08/29 09:35:04;;;;;;;2.20;1.83;;;14.60;99.90;;;;;;4973726;28;20073;-77
2021/08/29 09:37:51;;;;;;;1.52;1.20;;;14.60;99.90;;;;;;5025083;28;20056;-77
2021/08/29 09:40:41;;;;;;;3.28;2.45;;;14.60;99.90;;;;;;5009447;28;20050;-78
2021/08/29 09:43:11;;;;;;;3.38;3.00;;;14.60;99.90;;;;;;5061037;28;20080;-78
2021/08/29 09:45:45;;;;;;;1.80;1.27;;;14.70;99.90;;;;;;5044844;28;20073;-78
2021/08/29 09:48:31;;;;;;;1.13;1.00;;;14.70;99.90;;;;;;5055411;28;20096;-77
2021/08/29 09:51:19;;;;;;;1.05;0.82;;;14.70;99.90;;;;;;5047357;28;20057;-78
2021/08/29 09:53:54;;;;;;;1.38;1.20;;;14.60;99.90;;;;;;5035809;28;20064;-78
2021/08/29 09:56:27;;;;;;;1.83;1.02;;;14.70;99.90;;;;;;5042745;28;20187;-78
2021/08/29 09:59:13;;;;;;;1.02;0.82;;;14.80;99.90;;;;;;5015421;28;20053;-77
2021/08/29 10:02:00;;;;;;;3.13;1.20;;;14.80;99.90;;;;;;5026454;28;20097;-78
2021/08/29 10:05:17;;;;;;;1.15;1.00;;;14.90;99.90;;;;;;5024542;28;20063;-78
2021/08/29 10:07:58;;;;;;;0.77;0.70;;;15.00;99.90;;;;;;5008075;28;20061;-77
2021/08/29 10:10:28;;;;;;;1.92;0.80;;;14.80;99.90;;;;;;5023909;28;20070;-78
2021/08/29 10:12:59;;;;;;;1.67;1.02;;;14.90;99.90;;;;;;4990983;28;20053;-78
2021/08/29 10:15:27;;;;;;;1.20;1.00;;;14.90;99.90;;;;;;4988710;28;20058;-75
2021/08/29 10:18:15;;;;;;;1.65;1.45;;;14.90;99.90;;;;;;5005136;28;20057;-75
2021/08/29 10:20:48;;;;;;;1.80;0.98;;;15.10;99.90;;;;;;5005730;28;20052;-75
2021/08/29 10:23:18;;;;;;;3.08;1.40;;;14.90;99.90;;;;;;4995772;28;20439;-75
2021/08/29 10:25:46;;;;;;;3.20;1.88;;;14.90;99.90;;;;;;5029550;28;20115;-75
2021/08/29 10:28:39;;;;;;;1.90;1.70;;;14.90;99.90;;;;;;5016714;28;20135;-74
2021/08/29 10:31:29;;;;;;;2.83;1.50;;;14.90;99.90;;;;;;5030440;28;20101;-74
2021/08/29 10:34:11;;;;;;;1.30;1.20;;;14.80;99.90;;;;;;5001049;28;20045;-73
2021/08/29 10:36:38;;;;;;;1.88;1.63;;;14.90;99.90;;;;;;4986032;28;20054;-75
2021/08/29 10:39:05;;;;;;;2.08;1.60;;;14.80;99.90;;;;;;5042795;28;20046;-73
2021/08/29 10:41:52;;;;;;;;;;;15.00;99.90;;;;;;5010878;28;20299;-75
2021/08/29 10:44:25;;;;;;;1.40;1.27;;;15.20;99.90;;;;;;5004088;28;19933;-74
2021/08/29 10:47:10;;;;;;;;;;;15.30;99.90;;;;;;5014195;28;20046;-74
2021/08/29 10:50:12;;;;;;;1.58;1.40;;;15.20;99.90;;;;;;5004913;28;20005;-75
2021/08/29 10:52:39;;;;;;;1.55;0.95;;;15.30;99.90;;;;;;5007787;28;20049;-74
2021/08/29 10:55:12;;;;;;;1.10;1.00;;;15.50;99.90;;;;;;5008794;28;20049;-75
2021/08/29 10:57:42;;;;;;;0.93;0.82;;;15.60;99.90;;;;;;5028338;28;20061;-75
2021/08/29 11:00:19;;;;;;;2.92;2.00;;;15.70;99.90;;;;;;5038563;28;20061;-75
2021/08/29 11:02:49;;;;;;;1.90;1.60;;;15.70;99.90;;;;;;5039028;28;20060;-74
2021/08/29 11:05:42;;;;;;;4.22;2.08;;;15.80;99.90;;;;;;4995081;28;20062;-75
2021/08/29 11:08:28;;;;;;;1.73;1.15;;;15.60;99.90;;;;;;5013684;28;20052;-74
2021/08/29 11:10:58;;;;;;;2.17;1.40;;;15.60;99.90;;;;;;5022198;28;20051;-76
2021/08/29 11:13:32;;;;;;;2.42;1.30;;;15.50;99.90;;;;;;5007323;28;20128;-75
2021/08/29 11:16:17;;;;;;;1.55;1.10;;;15.50;99.90;;;;;;5022237;28;20053;-74
2021/08/29 11:19:04;;;;;;;2.05;1.67;;;15.60;99.90;;;;;;5036556;28;20076;-75
2021/08/29 11:21:45;;;;;;;2.35;1.60;;;15.80;99.90;;;;;;5010426;28;20046;-75
2021/08/29 11:24:51;;;;;;;2.00;1.60;;;15.90;99.90;;;;;;5034900;28;20038;-74
2021/08/29 11:27:33;;;;;;;2.33;1.98;;;16.00;99.90;;;;;;5000735;28;20537;-75
2021/08/29 11:30:41;;;;;;;2.58;1.95;;;16.00;99.90;;;;;;5002729;28;20445;-73
2021/08/29 11:33:25;;;;;;;2.13;1.92;;;15.80;99.90;;;;;;5004540;28;20049;-75
2021/08/29 11:36:03;;;;;;;2.33;2.10;;;15.60;99.90;;;;;;5017860;28;20133;-75
2021/08/29 11:38:54;;;;;;;2.47;2.28;;;15.50;99.90;;;;;;5040871;28;20110;-74
2021/08/29 11:41:21;;;;;;;2.50;2.30;;;15.60;99.90;;;;;;5021250;28;20045;-74
2021/08/29 11:43:50;;;;;;;2.90;2.60;;;15.50;99.90;;;;;;5022288;28;20045;-76
2021/08/29 11:46:26;;;;;;;3.20;2.38;;;15.40;99.90;;;;;;5037267;28;20153;-75
2021/08/29 11:49:14;;;;;;;3.40;2.47;;;15.40;99.90;;;;;;5016509;28;20049;-74
2021/08/29 11:51:50;;;;;;;3.42;2.45;;;15.40;99.90;;;;;;4994901;28;20064;-75
2021/08/29 11:54:37;;;;;;;3.42;3.10;;;15.40;99.90;;;;;;5023610;28;20068;-75
2021/08/29 11:57:04;;;;;;;2.80;2.50;;;15.50;99.90;;;;;;5002785;28;20073;-75
2021/08/29 11:59:36;;;;;;;2.90;2.50;;;15.60;99.90;;;;;;5024001;28;20055;-75
2021/08/29 12:02:14;;;;;;;4.22;3.08;;;15.50;99.90;;;;;;5005822;28;20073;-74
2021/08/29 12:04:51;;;;;;;3.63;2.97;;;15.50;99.90;;;;;;5005729;28;20498;-74
2021/08/29 12:08:09;;;;;;;3.38;2.80;;;15.50;99.90;;;;;;5021909;28;20161;-75
2021/08/29 12:10:56;;;;;;;2.78;2.40;;;15.50;99.90;;;;;;5041820;28;20128;-74
2021/08/29 12:13:42;;;;;;;3.25;2.13;;;15.50;99.90;;;;;;5020465;28;20116;-74
2021/08/29 12:16:50;;;;;;;2.38;2.17;;;15.60;99.90;;;;;;5022451;28;20136;-75
2021/08/29 12:19:24;;;;;;;3.95;3.00;;;15.90;99.90;;;;;;5039045;28;20376;-75
2021/08/29 12:22:11;;;;;;;5.03;2.08;;;15.80;99.90;;;;;;5022343;28;20383;-74
2021/08/29 12:24:49;;;;;;;3.38;2.88;;;15.90;99.90;;;;;;5035034;28;20050;-75
2021/08/29 12:27:18;;;;;;;3.05;2.75;;;16.00;99.90;;;;;;5018238;28;20487;-74
2021/08/29 12:29:48;;;;;;;3.38;2.85;;;15.80;99.90;;;;;;5022035;28;20086;-73
2021/08/29 12:32:18;;;;;;;2.88;2.60;;;15.60;99.90;;;;;;5021648;28;20057;-75
2021/08/29 12:35:03;;;;;;;2.55;2.20;;;15.60;99.90;;;;;;5018932;28;20037;-74
2021/08/29 12:37:34;;;;;;;2.78;2.42;;;15.60;99.90;;;;;;5006313;28;20113;-74
2021/08/29 12:40:07;;;;;;;2.10;1.65;;;15.60;99.90;;;;;;5037107;28;20415;-75
2021/08/29 12:42:38;;;;;;;2.13;1.80;;;15.70;99.90;;;;;;5021100;28;20053;-74
2021/08/29 12:45:16;;;;;;;3.05;1.73;;;15.70;99.90;;;;;;5004383;28;20512;-74
2021/08/29 12:47:45;;;;;;;3.97;2.13;;;15.60;99.90;;;;;;5021729;28;20430;-74
2021/08/29 12:50:16;;;;;;;2.08;1.77;;;15.60;99.90;;;;;;5037523;28;20489;-73
2021/08/29 12:52:46;;;;;;;3.08;1.92;;;15.60;99.90;;;;;;5020330;28;20042;-76
2021/08/29 12:55:13;;;;;;;4.07;3.10;;;15.70;99.90;;;;;;5021864;28;20096;-74
2021/08/29 12:57:41;;;;;;;2.90;2.65;;;15.60;99.90;;;;;;5041224;28;20493;-75
2021/08/29 13:00:09;;;;;;;2.92;2.63;;;15.60;99.90;;;;;;5023354;28;20049;-74
2021/08/29 13:02:39;;;;;;;4.03;2.92;;;15.60;99.90;;;;;;4995851;28;20057;-74
2021/08/29 13:05:08;;;;;;;4.38;3.22;;;15.70;99.90;;;;;;5014694;28;20607;-75
2021/08/29 13:07:52;;;;;;;6.25;4.38;;;15.70;99.90;;;;;;5001600;28;20225;-74
2021/08/29 13:10:21;;;;;;;9.88;6.65;;;15.50;99.90;;;;;;5001503;28;20050;-74
2021/08/29 13:13:03;;;;;;;7.47;6.15;;;15.50;99.90;;;;;;5002426;28;20041;-74
2021/08/29 13:15:30;;;;;;;7.55;5.78;;;15.40;99.90;;;;;;4984498;28;20060;-75
2021/08/29 13:17:56;;;;;;;8.57;5.65;;;15.40;99.90;;;;;;5002938;28;20049;-75
2021/08/29 13:20:35;;;;;;;8.90;6.32;;;15.30;99.90;;;;;;5004572;28;20076;-74
2021/08/29 13:23:02;;;;;;;8.75;7.28;;;15.20;99.90;;;;;;5019771;28;20107;-75
2021/08/29 13:25:30;;;;;;;12.15;7.20;;;15.20;99.90;;;;;;4996579;28;20390;-74
2021/08/29 13:27:59;;;;;;;12.70;8.00;;;15.20;99.90;;;;;;5012483;28;20046;-75